createdAt,value
2022-12-29T00:03:37.372Z,9.40
2022-12-29T00:08:42.725Z,9.50
2022-12-29T00:14:07.263Z,9.50
2022-12-29T00:19:30.296Z,9.50
2022-12-29T00:24:50.988Z,9.50
2022-12-29T00:30:11.558Z,9.60
2022-12-29T00:35:23.728Z,9.60
2022-12-29T00:40:47.153Z,9.50
2022-12-29T00:45:52.042Z,9.50
2022-12-29T00:51:05.010Z,9.50
2022-12-29T00:56:13.454Z,9.40
2022-12-29T01:01:20.038Z,9.40
2022-12-29T01:06:25.096Z,9.40
2022-12-29T01:11:27.505Z,9.50
2022-12-29T01:16:31.714Z,9.50
2022-12-29T01:21:35.221Z,9.60
2022-12-29T01:27:08.951Z,9.70
2022-12-29T01:32:22.776Z,9.80
2022-12-29T01:37:28.665Z,9.70
2022-12-29T01:42:43.604Z,9.70
2022-12-29T01:48:09.650Z,9.60
2022-12-29T01:53:21.719Z,9.60
2022-12-29T01:58:49.671Z,9.60
2022-12-29T02:03:54.655Z,9.50
2022-12-29T02:09:15.141Z,9.40
2022-12-29T02:14:36.628Z,9.30
2022-12-29T02:20:05.187Z,9.30
2022-12-29T02:26:03.028Z,9.10
2022-12-29T02:31:41.793Z,9.00
2022-12-29T02:37:19.049Z,8.80
2022-12-29T02:42:35.492Z,8.80
2022-12-29T02:48:04.853Z,8.90
2022-12-29T02:53:45.606Z,8.80
2022-12-29T02:58:51.314Z,8.80
2022-12-29T03:04:20.706Z,8.70
2022-12-29T03:09:35.859Z,8.70
2022-12-29T03:15:03.650Z,8.90
2022-12-29T03:20:12.882Z,9.00
2022-12-29T03:30:59.714Z,8.80
2022-12-29T03:36:10.697Z,8.70
2022-12-29T03:41:22.950Z,8.70
2022-12-29T03:46:26.137Z,8.70
2022-12-29T03:51:28.561Z,8.70
2022-12-29T03:56:37.712Z,8.60
2022-12-29T04:01:43.176Z,8.60
2022-12-29T04:06:45.659Z,8.50
2022-12-29T04:11:52.431Z,8.50
2022-12-29T04:17:10.826Z,8.60
2022-12-29T04:22:18.516Z,8.60
2022-12-29T04:27:23.578Z,8.50
2022-12-29T04:33:21.493Z,8.50
2022-12-29T04:38:35.051Z,8.60
2022-12-29T04:43:45.152Z,8.50
2022-12-29T04:48:55.905Z,8.40
2022-12-29T04:54:08.656Z,8.40
2022-12-29T04:59:15.592Z,8.40
2022-12-29T05:04:23.051Z,8.50
2022-12-29T05:09:28.876Z,8.60
2022-12-29T05:14:38.583Z,8.70
2022-12-29T05:19:45.915Z,8.80
2022-12-29T05:24:53.655Z,8.40
2022-12-29T05:30:09.611Z,8.20
2022-12-29T05:35:13.056Z,8.20
2022-12-29T05:40:25.524Z,8.10
2022-12-29T05:45:41.070Z,7.90
2022-12-29T05:51:08.255Z,7.90
2022-12-29T05:56:55.133Z,7.90
2022-12-29T06:02:30.540Z,7.90
2022-12-29T06:08:03.773Z,7.80
2022-12-29T06:13:11.618Z,7.80
2022-12-29T06:18:24.585Z,7.70
2022-12-29T06:24:25.830Z,7.70
2022-12-29T06:30:08.135Z,7.60
2022-12-29T06:35:16.467Z,7.60
2022-12-29T06:40:32.937Z,7.60
2022-12-29T06:46:15.447Z,7.60
2022-12-29T06:51:26.702Z,7.50
2022-12-29T06:56:45.872Z,7.40
2022-12-29T07:07:15.804Z,7.40
2022-12-29T07:12:21.766Z,7.50
2022-12-29T07:17:36.029Z,7.60
2022-12-29T07:23:03.198Z,7.80
2022-12-29T07:28:07.543Z,8.00
2022-12-29T07:33:13.611Z,8.00
2022-12-29T07:38:23.969Z,8.00
2022-12-29T07:43:30.309Z,8.10
2022-12-29T07:48:58.093Z,8.10
2022-12-29T07:54:34.718Z,8.30
2022-12-29T08:00:12.258Z,8.20
2022-12-29T08:05:51.387Z,8.10
2022-12-29T08:11:05.128Z,8.10
2022-12-29T08:16:14.251Z,8.30
2022-12-29T08:21:25.553Z,8.00
2022-12-29T08:26:35.448Z,7.90
2022-12-29T08:31:44.216Z,7.60
2022-12-29T08:37:30.927Z,7.50
2022-12-29T08:42:36.358Z,7.50
2022-12-29T08:47:43.294Z,7.50
2022-12-29T08:53:11.504Z,7.60
2022-12-29T09:04:45.312Z,7.70
2022-12-29T09:10:21.115Z,7.70
2022-12-29T09:16:11.982Z,7.60
2022-12-29T09:21:28.874Z,7.50
2022-12-29T09:26:37.128Z,7.50
2022-12-29T09:31:44.219Z,7.60
2022-12-29T09:37:16.933Z,7.80
2022-12-29T09:42:40.884Z,8.00
2022-12-29T09:47:46.103Z,8.20
2022-12-29T09:53:16.961Z,8.50
2022-12-29T09:58:30.432Z,8.90
2022-12-29T10:04:01.421Z,9.00
2022-12-29T10:15:24.640Z,9.00
2022-12-29T10:21:13.836Z,8.60
2022-12-29T10:26:48.595Z,8.40
2022-12-29T10:32:09.784Z,8.30
2022-12-29T10:38:08.539Z,8.40
2022-12-29T10:49:21.740Z,9.30
2022-12-29T10:54:43.486Z,9.30
2022-12-29T11:00:05.863Z,9.20
2022-12-29T11:05:27.478Z,9.10
2022-12-29T11:10:43.787Z,9.10
2022-12-29T11:15:58.117Z,9.10
2022-12-29T11:21:36.895Z,9.00
2022-12-29T11:26:48.977Z,9.00
2022-12-29T11:32:05.483Z,9.30
2022-12-29T11:43:09.600Z,9.70
2022-12-29T11:48:29.044Z,9.70
2022-12-29T11:54:03.951Z,9.80
2022-12-29T11:59:28.691Z,10.20
2022-12-29T12:04:47.442Z,10.40
2022-12-29T12:15:57.368Z,10.40
2022-12-29T12:21:45.327Z,10.30
2022-12-29T12:27:15.125Z,10.10
2022-12-29T12:32:47.121Z,10.10
2022-12-29T12:38:43.315Z,10.20
2022-12-29T12:44:03.422Z,10.40
2022-12-29T12:56:15.774Z,10.30
2022-12-29T13:01:43.770Z,10.00
2022-12-29T13:07:40.207Z,9.90
2022-12-29T13:13:26.666Z,9.60
2022-12-29T13:19:13.105Z,9.40
2022-12-29T13:24:36.269Z,9.20
2022-12-29T13:30:06.842Z,8.80
2022-12-29T13:35:30.734Z,8.70
2022-12-29T13:40:41.379Z,8.60
2022-12-29T13:45:50.448Z,8.60
2022-12-29T13:51:13.082Z,8.60
2022-12-29T13:57:07.457Z,8.60
2022-12-29T14:08:56.304Z,8.60
2022-12-29T14:15:34.057Z,8.70
2022-12-29T14:21:54.894Z,8.80
2022-12-29T14:28:25.636Z,9.00
2022-12-29T14:34:19.783Z,8.90
2022-12-29T14:40:23.825Z,8.90
2022-12-29T14:45:49.704Z,8.90
2022-12-29T14:51:05.341Z,8.90
2022-12-29T14:56:13.148Z,9.00
2022-12-29T15:01:49.407Z,9.10
2022-12-29T15:07:12.994Z,9.10
2022-12-29T15:18:58.615Z,9.10
2022-12-29T15:24:18.994Z,9.10
2022-12-29T15:30:07.805Z,8.90
2022-12-29T15:35:43.949Z,8.80
2022-12-29T15:41:29.899Z,8.80
2022-12-29T15:46:32.899Z,8.90
2022-12-29T15:51:43.715Z,9.10
2022-12-29T15:56:51.690Z,9.30
2022-12-29T16:01:59.178Z,9.10
2022-12-29T16:07:42.599Z,8.80
2022-12-29T16:13:04.927Z,8.70
2022-12-29T16:18:30.691Z,8.60
2022-12-29T16:23:41.163Z,8.40
2022-12-29T16:28:45.907Z,8.40
2022-12-29T16:33:58.950Z,8.20
2022-12-29T16:39:13.625Z,8.10
2022-12-29T16:44:45.016Z,8.10
2022-12-29T16:50:15.190Z,8.00
2022-12-29T16:55:39.485Z,7.90
2022-12-29T17:00:46.892Z,7.90
2022-12-29T17:05:57.199Z,7.80
2022-12-29T17:11:20.944Z,7.80
2022-12-29T17:16:32.375Z,7.70
2022-12-29T17:21:38.822Z,7.70
2022-12-29T17:26:50.179Z,7.60
2022-12-29T17:32:04.269Z,7.50
2022-12-29T17:37:36.624Z,7.40
2022-12-29T17:42:46.991Z,7.30
2022-12-29T17:47:53.163Z,7.30
2022-12-29T17:53:05.960Z,7.20
2022-12-29T18:11:04.802Z,7.00
2022-12-29T18:18:11.210Z,6.90
2022-12-29T18:24:29.601Z,6.90
2022-12-29T18:29:59.358Z,6.90
2022-12-29T18:55:48.131Z,6.70
2022-12-29T19:13:34.043Z,6.40
2022-12-29T19:19:09.091Z,6.30
2022-12-29T19:24:24.506Z,6.20
2022-12-29T19:29:50.872Z,6.20
2022-12-29T19:35:43.702Z,6.20
2022-12-29T19:41:20.116Z,6.30
2022-12-29T19:46:33.358Z,6.30
2022-12-29T19:51:47.358Z,6.30
2022-12-29T19:57:36.196Z,6.30
2022-12-29T20:02:48.950Z,6.30
2022-12-29T20:13:25.578Z,6.10
2022-12-29T20:18:30.396Z,6.10
2022-12-29T20:23:40.756Z,6.10
2022-12-29T20:28:57.002Z,6.20
2022-12-29T20:34:17.381Z,6.20
2022-12-29T20:39:27.252Z,6.20
2022-12-29T20:44:32.674Z,6.30
2022-12-29T20:49:44.028Z,6.20
2022-12-29T20:54:53.190Z,6.30
2022-12-29T21:00:31.348Z,6.40
2022-12-29T21:05:37.767Z,6.40
2022-12-29T21:10:41.959Z,6.40
2022-12-29T21:21:27.548Z,6.40
2022-12-29T21:26:30.576Z,6.30
2022-12-29T21:31:35.929Z,6.30
2022-12-29T21:36:43.000Z,6.20
2022-12-29T21:42:04.722Z,6.10
2022-12-29T21:47:08.758Z,6.00
2022-12-29T21:52:16.322Z,6.00
2022-12-29T21:57:46.768Z,6.00
2022-12-29T22:09:52.179Z,6.20
2022-12-29T22:26:15.609Z,6.40
2022-12-29T22:32:01.570Z,6.50
2022-12-29T22:37:10.255Z,6.70
2022-12-29T22:42:16.280Z,6.80
2022-12-29T22:47:20.207Z,6.90
2022-12-29T22:52:59.872Z,7.00
2022-12-29T22:58:23.522Z,7.10
2022-12-29T23:04:55.592Z,7.20
2022-12-29T23:09:40.179Z,7.30
2022-12-29T23:15:27.375Z,7.30
2022-12-29T23:20:59.360Z,7.30
2022-12-29T23:26:39.075Z,7.20
2022-12-29T23:32:18.149Z,7.20
2022-12-29T23:37:36.090Z,7.20
2022-12-29T23:48:14.398Z,7.10
2022-12-29T23:53:29.914Z,7.00
2022-12-29T23:58:45.940Z,7.00
